Time;durP1;ratioP1;P1;durP2;ratioP2;P2;SDS_P1;SDS_P2;PMS_P1;PMS_P2;Temp;Humidity;BMP_temperature;BMP_pressure;BME280_temperature;BME280_humidity;BME280_pressure;Samples;Min_cycle;Max_cycle;Signal;HPM_P1;HPM_P2
2022/09/25 00:01:20;;;;;;;9.55;8.10;;;15.00;96.80;;;;;;5011070;28;20065;-75
2022/09/25 00:03:46;;;;;;;8.82;7.22;;;15.00;96.90;;;;;;4989198;28;20064;-75
2022/09/25 00:06:20;;;;;;;9.05;7.25;;;15.00;96.80;;;;;;5010873;28;20026;-75
2022/09/25 00:08:46;;;;;;;8.43;6.95;;;15.00;96.90;;;;;;5008038;28;20116;-75
2022/09/25 00:11:18;;;;;;;8.80;6.93;;;15.00;96.80;;;;;;4994984;28;20433;-75
2022/09/25 00:13:44;;;;;;;7.53;6.63;;;15.00;96.80;;;;;;5012374;28;20038;-75
2022/09/25 00:16:13;;;;;;;8.13;7.25;;;15.00;96.80;;;;;;5014270;28;20072;-75
2022/09/25 00:21:28;;;;;;;8.48;6.60;;;15.00;96.60;;;;;;5012999;28;20064;-75
2022/09/25 00:23:53;;;;;;;12.07;8.00;;;15.00;96.50;;;;;;4999441;28;20519;-75
2022/09/25 00:26:19;;;;;;;10.00;6.40;;;15.00;96.60;;;;;;5007325;28;20026;-75
2022/09/25 00:28:46;;;;;;;8.13;6.88;;;15.00;96.50;;;;;;4978528;28;20034;-75
2022/09/25 00:31:18;;;;;;;8.40;7.00;;;15.00;96.50;;;;;;5014280;28;20076;-75
2022/09/25 00:33:44;;;;;;;8.20;6.68;;;15.00;96.40;;;;;;5011232;28;20031;-74
2022/09/25 00:36:10;;;;;;;8.25;6.82;;;15.00;96.40;;;;;;5005749;28;20068;-74
2022/09/25 00:38:37;;;;;;;8.10;6.32;;;14.90;96.30;;;;;;5004608;28;20045;-74
2022/09/25 00:41:05;;;;;;;7.22;5.90;;;14.90;96.20;;;;;;5013718;28;20480;-74
2022/09/25 00:43:39;;;;;;;7.20;5.93;;;14.90;96.10;;;;;;5005885;28;20033;-74
2022/09/25 00:46:21;;;;;;;6.80;5.47;;;14.90;96.10;;;;;;5014544;28;20056;-74
2022/09/25 00:49:12;;;;;;;8.30;5.72;;;14.90;96.10;;;;;;5012938;28;20777;-74
2022/09/25 00:51:47;;;;;;;6.80;5.38;;;14.90;96.10;;;;;;4985861;28;20042;-74
2022/09/25 00:54:18;;;;;;;;;;;14.90;96.10;;;;;;5005302;28;20073;-74
2022/09/25 00:56:49;;;;;;;6.47;5.30;;;14.90;96.10;;;;;;5009497;28;20074;-73
2022/09/25 00:59:19;;;;;;;7.93;5.57;;;14.90;96.00;;;;;;4999211;28;20129;-74
2022/09/25 01:01:45;;;;;;;7.57;5.80;;;14.80;95.90;;;;;;5011501;28;20113;-73
2022/09/25 01:04:12;;;;;;;7.15;5.90;;;14.80;95.80;;;;;;5011893;28;20117;-73
2022/09/25 01:06:38;;;;;;;6.25;5.25;;;14.80;95.80;;;;;;5003077;28;20022;-73
2022/09/25 01:09:04;;;;;;;6.68;5.65;;;14.80;95.80;;;;;;5011296;28;20113;-73
2022/09/25 01:11:30;;;;;;;8.32;5.85;;;14.80;95.70;;;;;;5010575;28;20485;-73
2022/09/25 01:14:00;;;;;;;6.32;5.03;;;14.80;95.60;;;;;;4992744;28;20121;-74
2022/09/25 01:16:41;;;;;;;7.50;5.72;;;14.80;95.60;;;;;;5013861;28;20121;-73
2022/09/25 01:19:35;;;;;;;7.53;5.63;;;14.80;95.50;;;;;;5013825;28;20380;-74
2022/09/25 01:22:25;;;;;;;6.00;4.90;;;14.80;95.50;;;;;;5003192;28;20038;-74
2022/09/25 01:25:10;;;;;;;6.60;5.47;;;14.80;95.30;;;;;;5005142;28;20041;-76
2022/09/25 01:28:05;;;;;;;7.55;5.22;;;14.80;95.30;;;;;;5008625;28;20076;-74
2022/09/25 01:30:37;;;;;;;6.50;4.95;;;14.80;95.20;;;;;;5008393;28;20149;-73
2022/09/25 01:33:11;;;;;;;6.18;5.25;;;14.80;95.30;;;;;;5011688;28;20048;-74
2022/09/25 01:35:48;;;;;;;8.35;5.05;;;14.80;95.20;;;;;;5013051;28;20484;-74
2022/09/25 01:38:33;;;;;;;7.55;5.30;;;14.80;95.10;;;;;;5026182;28;20037;-74
2022/09/25 01:41:17;;;;;;;5.75;4.97;;;14.80;95.10;;;;;;5025938;28;20037;-74
2022/09/25 01:43:49;;;;;;;7.40;4.90;;;14.80;95.10;;;;;;4993189;28;20092;-74
2022/09/25 01:46:20;;;;;;;6.35;5.00;;;14.90;95.10;;;;;;5011684;28;20033;-74
2022/09/25 01:48:50;;;;;;;6.05;5.00;;;14.90;95.10;;;;;;4993850;28;20105;-74
2022/09/25 01:51:24;;;;;;;6.10;4.90;;;14.80;95.00;;;;;;4998695;28;20026;-74
2022/09/25 01:53:55;;;;;;;5.60;4.88;;;14.90;95.00;;;;;;5001925;28;20050;-73
2022/09/25 01:56:31;;;;;;;7.82;5.38;;;14.90;94.90;;;;;;5007354;28;20052;-74
2022/09/25 01:59:36;;;;;;;7.57;5.10;;;14.90;94.90;;;;;;5001298;28;20030;-74
2022/09/25 02:02:04;;;;;;;6.10;4.63;;;14.90;94.90;;;;;;4994417;28;20053;-74
2022/09/25 02:04:38;;;;;;;6.32;5.30;;;14.90;94.90;;;;;;5012059;28;20042;-73
2022/09/25 02:07:07;;;;;;;6.28;5.03;;;14.90;94.90;;;;;;5011903;28;20054;-74
2022/09/25 02:09:43;;;;;;;6.03;5.03;;;14.90;94.90;;;;;;5011826;28;20030;-75
2022/09/25 02:12:14;;;;;;;6.55;5.40;;;14.90;94.90;;;;;;5012521;28;20117;-74
2022/09/25 02:14:52;;;;;;;6.07;5.47;;;14.90;94.90;;;;;;5012972;28;20050;-75
2022/09/25 02:20:31;;;;;;;5.93;5.30;;;14.80;94.90;;;;;;5007930;28;20060;-75
2022/09/25 02:23:19;;;;;;;6.85;4.95;;;14.90;94.90;;;;;;5009979;28;20030;-75
2022/09/25 02:26:16;;;;;;;6.57;5.88;;;14.80;94.90;;;;;;5012172;28;20038;-75
2022/09/25 02:28:42;;;;;;;6.85;5.15;;;14.80;94.90;;;;;;4995757;28;20489;-74
2022/09/25 02:31:11;;;;;;;6.20;5.20;;;14.80;95.00;;;;;;5015456;28;20033;-74
2022/09/25 02:33:37;;;;;;;7.28;5.45;;;14.80;95.00;;;;;;5010766;28;20028;-75
2022/09/25 02:36:04;;;;;;;7.10;5.68;;;14.80;95.00;;;;;;5011082;28;20026;-74
2022/09/25 02:38:32;;;;;;;6.22;5.13;;;14.80;95.00;;;;;;5010516;28;20025;-75
2022/09/25 02:41:35;;;;;;;6.93;5.22;;;14.70;95.00;;;;;;4994326;28;20033;-74
2022/09/25 02:44:19;;;;;;;6.78;5.30;;;14.80;95.00;;;;;;5004156;28;20034;-74
2022/09/25 02:47:07;;;;;;;6.03;5.43;;;14.70;95.10;;;;;;5006326;28;20057;-74
2022/09/25 02:50:04;;;;;;;7.25;5.72;;;14.70;95.10;;;;;;4997542;28;20093;-74
2022/09/25 02:52:44;;;;;;;8.07;5.53;;;14.70;95.10;;;;;;5010407;28;20049;-73
2022/09/25 02:55:50;;;;;;;6.43;5.18;;;14.70;95.10;;;;;;5011891;28;20121;-74
2022/09/25 02:58:26;;;;;;;6.32;5.28;;;14.70;95.20;;;;;;4984209;28;20096;-73
2022/09/25 03:00:54;;;;;;;6.97;5.35;;;14.60;95.20;;;;;;5012382;28;20053;-75
2022/09/25 03:03:23;;;;;;;6.72;5.50;;;14.60;95.20;;;;;;5001118;28;20044;-74
2022/09/25 03:05:51;;;;;;;7.22;5.28;;;14.60;95.20;;;;;;5008749;28;20018;-74
2022/09/25 03:08:37;;;;;;;6.45;5.35;;;14.60;95.30;;;;;;5011709;28;20034;-74
2022/09/25 03:11:11;;;;;;;6.40;5.80;;;14.60;95.20;;;;;;5011248;28;20032;-74
2022/09/25 03:13:38;;;;;;;6.95;5.97;;;14.60;95.30;;;;;;5019315;28;20064;-74
2022/09/25 03:16:09;;;;;;;8.48;6.03;;;14.60;95.30;;;;;;5022782;28;20473;-74
2022/09/25 03:18:36;;;;;;;7.57;5.82;;;14.60;95.40;;;;;;4992994;28;20041;-74
2022/09/25 03:21:03;;;;;;;8.38;5.55;;;14.60;95.50;;;;;;5002017;28;20022;-74
2022/09/25 03:23:33;;;;;;;7.82;5.95;;;14.60;95.50;;;;;;5012389;28;20041;-73
2022/09/25 03:25:59;;;;;;;8.15;6.18;;;14.50;95.50;;;;;;5010179;28;20018;-74
2022/09/25 03:28:26;;;;;;;7.93;5.65;;;14.60;95.50;;;;;;4996787;28;20044;-74
2022/09/25 03:31:03;;;;;;;7.07;5.70;;;14.60;95.60;;;;;;5011579;28;20448;-74
2022/09/25 03:33:34;;;;;;;7.30;5.95;;;14.60;95.70;;;;;;5011802;28;20060;-74
2022/09/25 03:36:01;;;;;;;9.45;6.32;;;14.60;95.70;;;;;;5010728;28;20380;-74
2022/09/25 03:38:26;;;;;;;6.47;5.68;;;14.60;95.80;;;;;;5011945;28;20037;-74
2022/09/25 03:40:52;;;;;;;8.77;6.28;;;14.70;95.90;;;;;;5011466;28;20033;-74
2022/09/25 03:43:18;;;;;;;8.10;5.95;;;14.60;96.00;;;;;;5010561;28;20508;-74
2022/09/25 03:45:44;;;;;;;8.32;6.20;;;14.60;96.00;;;;;;5003018;28;20037;-75
2022/09/25 03:48:10;;;;;;;7.35;5.90;;;14.60;96.00;;;;;;5017704;28;20040;-75
2022/09/25 03:50:38;;;;;;;6.72;6.03;;;14.60;96.00;;;;;;5017481;28;20419;-75
2022/09/25 03:53:04;;;;;;;9.43;7.22;;;14.60;96.10;;;;;;5018177;28;20061;-75
2022/09/25 03:55:29;;;;;;;6.45;5.82;;;14.60;96.10;;;;;;5017375;28;20057;-75
2022/09/25 03:57:55;;;;;;;8.15;6.07;;;14.60;96.10;;;;;;5015366;28;20025;-75
2022/09/25 04:00:22;;;;;;;9.43;6.22;;;14.60;96.20;;;;;;5015372;28;20496;-75
2022/09/25 04:02:49;;;;;;;8.52;6.32;;;14.60;96.20;;;;;;5008739;28;20030;-75
2022/09/25 04:05:15;;;;;;;7.53;6.20;;;14.60;96.20;;;;;;5016538;28;20060;-75
2022/09/25 04:07:41;;;;;;;6.78;5.80;;;14.60;96.20;;;;;;5016055;28;20033;-75
2022/09/25 04:10:08;;;;;;;8.48;6.68;;;14.60;96.30;;;;;;5017170;28;20077;-75
2022/09/25 04:12:34;;;;;;;6.95;6.25;;;14.60;96.30;;;;;;5006123;28;20027;-75
2022/09/25 04:15:01;;;;;;;9.60;7.03;;;14.60;96.30;;;;;;4994058;28;20072;-76
2022/09/25 04:17:28;;;;;;;7.60;6.80;;;14.60;96.40;;;;;;5000073;28;20393;-76
2022/09/25 04:19:53;;;;;;;7.47;6.68;;;14.60;96.40;;;;;;5017392;28;20464;-76
2022/09/25 04:22:19;;;;;;;8.82;6.75;;;14.50;96.30;;;;;;5008185;28;20046;-76
2022/09/25 04:24:48;;;;;;;8.52;7.05;;;14.50;96.30;;;;;;5007239;28;20044;-75
2022/09/25 04:27:19;;;;;;;7.95;6.75;;;14.50;96.30;;;;;;4994297;28;20065;-76
2022/09/25 04:29:45;;;;;;;8.50;6.88;;;14.50;96.40;;;;;;5018046;28;20034;-77
2022/09/25 04:34:57;;;;;;;8.38;6.72;;;14.50;96.40;;;;;;4998710;28;20380;-76
2022/09/25 04:37:26;;;;;;;9.27;7.70;;;14.50;96.40;;;;;;5004184;28;20030;-75
2022/09/25 04:39:56;;;;;;;8.18;7.32;;;14.50;96.40;;;;;;5018341;28;20076;-76
2022/09/25 04:42:23;;;;;;;8.60;7.13;;;14.50;96.40;;;;;;5008473;28;20034;-75
2022/09/25 04:44:56;;;;;;;8.63;6.85;;;14.50;96.40;;;;;;5016820;28;20034;-75
2022/09/25 04:47:25;;;;;;;8.55;6.88;;;14.40;96.40;;;;;;4994627;28;20038;-75
2022/09/25 04:49:51;;;;;;;8.55;6.72;;;14.40;96.40;;;;;;5020060;28;20030;-75
2022/09/25 04:52:18;;;;;;;9.35;7.55;;;14.40;96.50;;;;;;4994337;28;20022;-75
2022/09/25 04:54:44;;;;;;;8.82;7.25;;;14.50;96.50;;;;;;5017578;28;20057;-75
2022/09/25 04:57:17;;;;;;;10.23;7.15;;;14.50;96.50;;;;;;5014163;28;20030;-75
2022/09/25 04:59:44;;;;;;;9.23;7.65;;;14.40;96.40;;;;;;5014872;28;20033;-74
2022/09/25 05:02:12;;;;;;;8.60;6.65;;;14.40;96.40;;;;;;5008913;28;20483;-75
2022/09/25 05:04:37;;;;;;;10.90;6.78;;;14.40;96.40;;;;;;5013764;28;20480;-75
2022/09/25 05:07:04;;;;;;;7.40;6.68;;;14.40;96.50;;;;;;5008520;28;20109;-75
2022/09/25 05:09:30;;;;;;;9.80;7.25;;;14.40;96.50;;;;;;5014308;28;20358;-75
2022/09/25 05:11:56;;;;;;;8.05;7.03;;;14.40;96.50;;;;;;5009166;28;20113;-75
2022/09/25 05:14:23;;;;;;;9.23;7.35;;;14.40;96.50;;;;;;5014399;28;20050;-74
2022/09/25 05:16:48;;;;;;;10.15;7.45;;;14.40;96.50;;;;;;5008003;28;20030;-74
2022/09/25 05:19:14;;;;;;;8.90;7.68;;;14.40;96.50;;;;;;4996437;28;20144;-74
2022/09/25 05:21:41;;;;;;;11.23;7.68;;;14.40;96.50;;;;;;4996397;28;20044;-74
2022/09/25 05:24:07;;;;;;;11.70;7.38;;;14.40;96.40;;;;;;4996334;28;20164;-74
2022/09/25 05:26:33;;;;;;;8.68;7.10;;;14.40;96.40;;;;;;5011231;28;20563;-74
2022/09/25 05:29:00;;;;;;;9.05;7.63;;;14.40;96.40;;;;;;5013540;28;20033;-75
2022/09/25 05:31:26;;;;;;;9.05;7.78;;;14.40;96.50;;;;;;5013749;28;20040;-76
2022/09/25 05:33:52;;;;;;;9.00;7.25;;;14.40;96.50;;;;;;5013513;28;20030;-74
2022/09/25 05:36:19;;;;;;;10.38;6.97;;;14.40;96.50;;;;;;4995818;28;20018;-73
2022/09/25 05:38:44;;;;;;;8.80;7.10;;;14.40;96.50;;;;;;5012890;28;20486;-73
2022/09/25 05:41:10;;;;;;;10.85;8.00;;;14.40;96.50;;;;;;5012684;28;20041;-73
2022/09/25 05:43:42;;;;;;;9.48;7.05;;;14.40;96.60;;;;;;5003038;28;20043;-74
2022/09/25 05:46:09;;;;;;;10.18;7.47;;;14.40;96.60;;;;;;5013137;28;20064;-74
2022/09/25 05:48:35;;;;;;;10.88;7.15;;;14.50;96.60;;;;;;5013422;28;20041;-74
2022/09/25 05:51:02;;;;;;;9.30;7.53;;;14.50;96.60;;;;;;5013204;28;20040;-73
2022/09/25 05:53:29;;;;;;;9.70;7.50;;;14.50;96.60;;;;;;5013274;28;20040;-74
2022/09/25 05:55:57;;;;;;;8.98;7.30;;;14.50;96.50;;;;;;5012894;28;20112;-74
2022/09/25 05:58:24;;;;;;;9.45;7.40;;;14.50;96.40;;;;;;5008479;28;20026;-74
2022/09/25 06:00:50;;;;;;;9.73;8.07;;;14.40;96.40;;;;;;5013073;28;20068;-73
2022/09/25 06:03:16;;;;;;;8.35;7.32;;;14.50;96.40;;;;;;5000094;28;20042;-74
2022/09/25 06:05:45;;;;;;;8.48;7.53;;;14.50;96.40;;;;;;5001329;28;20022;-74
2022/09/25 06:08:13;;;;;;;8.02;7.13;;;14.50;96.40;;;;;;5011581;28;20030;-73
2022/09/25 06:10:39;;;;;;;10.93;7.90;;;14.40;96.30;;;;;;4997834;28;20069;-75
2022/09/25 06:13:05;;;;;;;9.30;7.75;;;14.40;96.30;;;;;;5012521;28;20026;-74
2022/09/25 06:15:36;;;;;;;8.43;7.22;;;14.40;96.30;;;;;;4995749;28;20473;-74
2022/09/25 06:18:03;;;;;;;8.85;7.88;;;14.40;96.40;;;;;;5011052;28;20048;-74
2022/09/25 06:20:29;;;;;;;8.25;7.40;;;14.40;96.40;;;;;;5013058;28;20029;-74
2022/09/25 06:22:55;;;;;;;9.70;7.75;;;14.40;96.40;;;;;;5011102;28;20049;-75
2022/09/25 06:25:24;;;;;;;9.05;7.75;;;14.40;96.60;;;;;;5012623;28;20033;-74
2022/09/25 06:27:54;;;;;;;9.30;7.78;;;14.40;96.80;;;;;;5006553;28;20033;-74
2022/09/25 06:30:21;;;;;;;10.63;8.80;;;14.40;96.90;;;;;;5013946;28;20025;-74
2022/09/25 06:32:48;;;;;;;9.25;7.78;;;14.50;96.90;;;;;;5006552;28;20037;-73
2022/09/25 06:35:14;;;;;;;10.40;8.02;;;14.50;96.90;;;;;;5013971;28;20037;-73
2022/09/25 06:37:39;;;;;;;9.55;7.78;;;14.60;97.00;;;;;;5010886;28;20055;-74
2022/09/25 06:40:06;;;;;;;9.45;7.65;;;14.70;97.10;;;;;;5013573;28;20113;-74
2022/09/25 06:42:34;;;;;;;9.98;7.05;;;14.80;97.10;;;;;;4989889;28;20049;-74
2022/09/25 06:44:59;;;;;;;9.75;8.02;;;14.90;97.10;;;;;;5011715;28;20021;-75
2022/09/25 06:47:25;;;;;;;11.13;7.85;;;15.00;97.10;;;;;;5005586;28;20026;-72
2022/09/25 06:49:51;;;;;;;9.95;8.07;;;15.00;97.00;;;;;;4993904;28;20018;-74
2022/09/25 06:52:17;;;;;;;10.25;8.30;;;15.10;97.00;;;;;;5009903;28;20538;-69
2022/09/25 06:54:42;;;;;;;9.48;8.40;;;15.10;96.90;;;;;;5009879;28;20045;-69
2022/09/25 06:57:08;;;;;;;10.55;7.85;;;15.20;97.00;;;;;;5006375;28;20036;-73
2022/09/25 06:59:34;;;;;;;11.30;8.15;;;15.20;96.90;;;;;;5007504;28;20110;-74
2022/09/25 07:03:43;;;;;;;11.10;9.52;;;15.30;96.90;;;;;;5001995;28;20037;-76
2022/09/25 07:04:50;;;;;;;11.52;8.98;;;15.40;96.80;;;;;;5010933;28;20060;-76
2022/09/25 07:07:19;;;;;;;13.40;8.77;;;15.50;96.70;;;;;;5007091;28;20041;-73
2022/09/25 07:09:47;;;;;;;11.52;8.57;;;15.50;96.50;;;;;;4988163;28;20068;-76
2022/09/25 07:12:13;;;;;;;10.32;8.43;;;15.50;96.30;;;;;;5010801;28;20030;-75
2022/09/25 07:14:40;;;;;;;9.68;8.50;;;15.60;96.40;;;;;;5010797;28;20014;-76
2022/09/25 07:17:07;;;;;;;11.57;9.38;;;15.60;96.30;;;;;;4996615;28;20397;-76
2022/09/25 07:19:33;;;;;;;11.38;8.45;;;15.70;96.30;;;;;;5015332;28;20022;-76
2022/09/25 07:22:00;;;;;;;12.68;9.80;;;15.70;96.10;;;;;;5010897;28;20026;-76
2022/09/25 07:24:26;;;;;;;11.60;8.98;;;15.70;96.10;;;;;;5016871;28;20095;-76
2022/09/25 07:26:55;;;;;;;10.18;8.98;;;15.80;96.10;;;;;;5017338;28;20074;-77
2022/09/25 07:29:21;;;;;;;12.75;9.38;;;15.80;95.80;;;;;;5017123;28;20038;-76
2022/09/25 07:31:46;;;;;;;10.13;8.65;;;15.80;95.70;;;;;;5010208;28;20022;-76
2022/09/25 07:34:12;;;;;;;11.40;9.25;;;15.90;95.70;;;;;;4997259;28;20018;-76
2022/09/25 07:36:39;;;;;;;10.02;8.65;;;15.90;95.70;;;;;;5008502;28;20083;-77
2022/09/25 07:39:06;;;;;;;11.63;9.35;;;15.90;95.70;;;;;;5003832;28;20025;-77
2022/09/25 07:41:33;;;;;;;11.63;9.18;;;16.00;95.80;;;;;;4998834;28;20489;-78
2022/09/25 07:44:00;;;;;;;11.23;9.57;;;16.00;95.80;;;;;;5004137;28;20063;-77
2022/09/25 07:46:27;;;;;;;10.80;9.38;;;16.10;95.80;;;;;;5001555;28;20026;-77
2022/09/25 07:48:53;;;;;;;11.93;10.05;;;16.10;95.70;;;;;;5007229;28;20452;-77
2022/09/25 07:51:23;;;;;;;12.30;10.18;;;16.20;95.80;;;;;;5001740;28;20054;-77
2022/09/25 07:53:54;;;;;;;12.65;9.70;;;16.30;95.90;;;;;;5011160;28;20534;-75
2022/09/25 07:56:20;;;;;;;12.00;8.75;;;16.40;95.50;;;;;;4994749;28;20038;-73
2022/09/25 07:58:47;;;;;;;11.68;9.40;;;16.50;95.50;;;;;;5005097;28;20381;-72
2022/09/25 08:01:12;;;;;;;10.30;8.90;;;16.50;95.60;;;;;;4993441;28;20029;-78
2022/09/25 08:03:38;;;;;;;12.13;9.05;;;16.60;95.50;;;;;;5009199;28;20030;-79
2022/09/25 08:06:10;;;;;;;9.73;8.43;;;16.70;95.50;;;;;;5007831;28;20103;-75
2022/09/25 08:08:36;;;;;;;10.20;9.05;;;16.80;95.50;;;;;;5008703;28;20069;-74
2022/09/25 08:11:08;;;;;;;12.98;9.68;;;16.80;95.00;;;;;;4996255;28;20468;-76
2022/09/25 08:13:37;;;;;;;12.50;9.75;;;16.90;94.70;;;;;;5003120;28;20030;-74
2022/09/25 08:16:04;;;;;;;16.90;9.85;;;16.90;94.80;;;;;;5008018;28;20033;-75
2022/09/25 08:18:30;;;;;;;11.38;8.88;;;16.90;94.90;;;;;;5005254;28;20080;-73
2022/09/25 08:21:03;;;;;;;10.00;8.13;;;16.90;94.90;;;;;;5002834;28;20025;-75
2022/09/25 08:23:29;;;;;;;10.30;8.52;;;17.00;95.00;;;;;;5005524;28;20397;-75
2022/09/25 08:25:55;;;;;;;11.07;9.02;;;17.00;94.90;;;;;;5010228;28;20037;-74
2022/09/25 08:28:21;;;;;;;11.52;8.80;;;17.10;94.90;;;;;;5010431;28;20480;-74
2022/09/25 08:30:48;;;;;;;11.30;9.93;;;17.10;94.90;;;;;;4999226;28;20385;-73
2022/09/25 08:33:14;;;;;;;10.52;8.75;;;17.20;94.80;;;;;;5009758;28;20037;-75
2022/09/25 08:35:41;;;;;;;13.02;10.15;;;17.30;94.60;;;;;;5015392;28;20137;-75
2022/09/25 08:38:08;;;;;;;10.05;8.90;;;17.30;94.70;;;;;;5011743;28;20030;-75
2022/09/25 08:40:38;;;;;;;10.88;9.50;;;17.30;94.40;;;;;;5012631;28;20078;-74
2022/09/25 08:43:04;;;;;;;9.68;8.68;;;17.30;94.30;;;;;;5013562;28;20164;-76
2022/09/25 08:51:31;;;;;;;11.73;8.55;;;17.40;94.40;;;;;;5008420;28;20634;-75
2022/09/25 08:53:58;;;;;;;9.65;8.10;;;17.50;94.60;;;;;;5011887;28;20065;-75
2022/09/25 08:56:27;;;;;;;11.65;9.63;;;17.60;94.60;;;;;;5003413;28;20038;-74
2022/09/25 08:59:04;;;;;;;13.15;9.95;;;17.60;94.50;;;;;;5008232;28;20033;-74
2022/09/25 09:01:46;;;;;;;12.50;9.15;;;17.70;94.30;;;;;;5012227;28;20033;-75
2022/09/25 09:04:30;;;;;;;11.57;8.95;;;17.70;94.60;;;;;;4994244;28;20084;-75
2022/09/25 09:07:08;;;;;;;10.03;8.37;;;17.80;94.40;;;;;;5009701;28;20045;-75
2022/09/25 09:09:44;;;;;;;12.73;8.95;;;17.80;94.50;;;;;;4995676;28;20056;-74
2022/09/25 09:12:15;;;;;;;10.32;8.32;;;17.90;94.20;;;;;;4986405;28;20026;-75
2022/09/25 09:14:48;;;;;;;10.00;8.20;;;17.90;94.50;;;;;;4992060;28;20140;-74
2022/09/25 09:17:20;;;;;;;10.63;9.27;;;17.90;94.40;;;;;;5001402;28;20413;-75
2022/09/25 09:19:58;;;;;;;11.30;8.63;;;17.90;94.30;;;;;;5012202;28;20128;-75
2022/09/25 09:22:40;;;;;;;10.10;8.55;;;17.90;94.30;;;;;;5010019;28;20135;-74
2022/09/25 09:25:18;;;;;;;10.32;9.15;;;17.80;94.30;;;;;;5009358;28;20060;-75
2022/09/25 09:28:04;;;;;;;11.27;10.07;;;17.80;94.20;;;;;;5004263;28;20037;-76
2022/09/25 09:30:46;;;;;;;11.05;8.45;;;17.80;94.00;;;;;;5007729;28;20116;-75
2022/09/25 09:33:33;;;;;;;10.35;9.27;;;17.70;94.20;;;;;;5006473;28;20112;-75
2022/09/25 09:36:08;;;;;;;14.52;10.35;;;17.70;94.00;;;;;;5015280;28;20523;-75
2022/09/25 09:38:54;;;;;;;12.60;9.40;;;17.60;94.00;;;;;;5014410;28;20028;-74
2022/09/25 09:41:32;;;;;;;13.00;10.07;;;17.60;94.00;;;;;;5006939;28;20435;-75
2022/09/25 09:44:18;;;;;;;10.98;9.60;;;17.50;93.70;;;;;;5014754;28;20033;-77
2022/09/25 09:47:21;;;;;;;11.77;10.48;;;17.50;93.70;;;;;;4992790;28;20426;-77
2022/09/25 09:50:05;;;;;;;10.60;9.38;;;17.50;93.60;;;;;;5009292;28;20037;-77
2022/09/25 09:52:40;;;;;;;13.25;10.52;;;17.40;93.60;;;;;;5006481;28;20366;-78
2022/09/25 09:55:39;;;;;;;14.85;10.02;;;17.40;93.80;;;;;;5000176;28;20053;-78
2022/09/25 09:58:35;;;;;;;11.10;9.88;;;17.40;93.90;;;;;;5003721;28;20509;-77
2022/09/25 10:01:02;;;;;;;11.40;9.13;;;17.40;93.70;;;;;;5003452;28;20030;-78
2022/09/25 10:03:34;;;;;;;13.20;10.10;;;17.50;93.80;;;;;;5008057;28;20501;-78
2022/09/25 10:06:09;;;;;;;10.65;8.85;;;17.50;93.70;;;;;;5005875;28;20026;-75
2022/09/25 10:08:35;;;;;;;10.75;8.98;;;17.50;93.90;;;;;;5000088;28;20497;-78
2022/09/25 10:11:09;;;;;;;11.68;10.02;;;17.60;94.00;;;;;;4994253;28;20030;-74
2022/09/25 10:13:39;;;;;;;12.23;10.32;;;17.60;94.00;;;;;;4995016;28;20555;-78
2022/09/25 10:16:15;;;;;;;11.07;9.32;;;17.60;94.10;;;;;;4988716;28;20030;-78
2022/09/25 10:18:46;;;;;;;12.23;9.98;;;17.70;94.10;;;;;;5011111;28;20044;-77
2022/09/25 10:21:31;;;;;;;12.40;10.15;;;17.70;94.10;;;;;;5009518;28;20141;-77
2022/09/25 10:23:58;;;;;;;12.35;9.02;;;17.80;94.00;;;;;;5007374;28;20515;-78
2022/09/25 10:26:27;;;;;;;11.25;9.35;;;17.80;94.10;;;;;;5011806;28;20034;-77
2022/09/25 10:28:55;;;;;;;15.77;9.18;;;17.90;94.10;;;;;;5004882;28;20387;-77
2022/09/25 10:31:21;;;;;;;10.60;8.50;;;17.90;94.10;;;;;;5010742;28;20034;-78
2022/09/25 10:34:00;;;;;;;11.20;8.95;;;18.00;94.10;;;;;;5005317;28;20481;-75
2022/09/25 10:36:40;;;;;;;11.13;8.55;;;18.10;94.00;;;;;;5006774;28;20029;-76
2022/09/25 10:39:39;;;;;;;10.95;8.85;;;18.10;93.90;;;;;;4990082;28;20424;-75
2022/09/25 10:42:33;;;;;;;12.15;9.18;;;18.10;93.80;;;;;;4964231;28;20424;-74
2022/09/25 10:45:13;;;;;;;10.82;8.38;;;18.20;93.50;;;;;;5004143;28;20108;-75
2022/09/25 10:50:27;;;;;;;9.10;7.32;;;18.30;93.10;;;;;;4997514;28;20029;-75
2022/09/25 10:52:58;;;;;;;9.27;8.05;;;18.40;93.20;;;;;;5009655;28;20041;-75
2022/09/25 10:55:33;;;;;;;11.70;9.10;;;18.50;92.80;;;;;;5005520;28;20074;-75
2022/09/25 10:58:19;;;;;;;12.20;9.68;;;18.50;92.80;;;;;;4991669;28;20030;-74
2022/09/25 11:00:50;;;;;;;10.43;8.70;;;18.60;92.50;;;;;;5004070;28;20046;-74
2022/09/25 11:03:21;;;;;;;9.48;7.68;;;18.60;92.70;;;;;;5004761;28;20044;-74
2022/09/25 11:05:54;;;;;;;9.93;7.82;;;18.70;92.60;;;;;;5003680;28;20034;-74
2022/09/25 11:08:28;;;;;;;10.07;8.07;;;18.70;92.80;;;;;;5008453;28;20075;-74
2022/09/25 11:10:57;;;;;;;10.00;8.07;;;18.80;92.60;;;;;;4991107;28;20045;-74
2022/09/25 11:13:46;;;;;;;10.50;8.98;;;18.90;92.60;;;;;;5002259;28;20515;-74
2022/09/25 11:16:11;;;;;;;9.77;8.05;;;19.00;92.20;;;;;;5006773;28;20083;-73
2022/09/25 11:18:46;;;;;;;9.27;8.23;;;19.00;92.20;;;;;;5006892;28;20546;-73
2022/09/25 11:21:20;;;;;;;9.32;8.10;;;19.10;92.30;;;;;;5004614;28;20022;-74
2022/09/25 11:23:57;;;;;;;11.27;8.07;;;19.20;92.20;;;;;;5009038;28;20096;-74
2022/09/25 11:26:31;;;;;;;10.40;7.70;;;19.30;92.40;;;;;;4997064;28;20041;-74
2022/09/25 11:29:21;;;;;;;9.27;7.65;;;19.40;92.20;;;;;;5006718;28;20388;-72
2022/09/25 11:32:05;;;;;;;9.00;7.25;;;19.50;92.00;;;;;;5009667;28;20038;-73
2022/09/25 11:34:36;;;;;;;8.50;7.20;;;19.60;92.00;;;;;;5002298;28;20473;-72
2022/09/25 11:37:33;;;;;;;9.38;8.40;;;19.60;91.90;;;;;;5007729;28;20030;-73
2022/09/25 11:43:31;;;;;;;11.80;8.35;;;19.70;92.10;;;;;;4947730;28;20039;-77
2022/09/25 11:46:25;;;;;;;10.15;7.95;;;19.80;91.90;;;;;;4998251;28;20443;-74
2022/09/25 11:49:02;;;;;;;9.93;7.13;;;19.80;91.90;;;;;;4991019;28;20205;-73
2022/09/25 11:51:42;;;;;;;9.63;8.15;;;19.80;91.80;;;;;;5001143;28;20026;-74
2022/09/25 11:54:23;;;;;;;11.15;8.02;;;19.80;91.70;;;;;;5008172;28;20042;-73
2022/09/25 11:57:00;;;;;;;11.95;9.45;;;19.80;91.70;;;;;;5007720;28;20034;-73
2022/09/25 11:59:49;;;;;;;11.05;8.07;;;19.80;91.40;;;;;;5008997;28;20038;-73
2022/09/25 12:02:40;;;;;;;9.13;7.18;;;19.90;91.60;;;;;;4971715;28;20366;-74
2022/09/25 12:05:27;;;;;;;8.75;7.15;;;19.80;91.70;;;;;;4996202;28;20088;-74
2022/09/25 12:08:08;;;;;;;13.55;8.75;;;19.90;91.70;;;;;;4997212;28;20022;-75
2022/09/25 12:11:04;;;;;;;9.65;7.63;;;19.90;91.60;;;;;;5004018;28;20153;-74
2022/09/25 12:13:44;;;;;;;10.48;8.48;;;19.90;91.60;;;;;;5007944;28;20638;-73
2022/09/25 12:16:10;;;;;;;10.18;7.40;;;20.00;91.60;;;;;;5008695;28;20026;-73
2022/09/25 12:19:00;;;;;;;10.48;7.78;;;20.00;91.50;;;;;;5004897;28;20042;-73
2022/09/25 12:21:44;;;;;;;10.75;7.53;;;20.10;91.30;;;;;;5003102;28;20089;-74
2022/09/25 12:24:35;;;;;;;8.55;7.00;;;20.20;91.30;;;;;;5013324;28;20041;-74
2022/09/25 12:27:17;;;;;;;8.43;7.28;;;20.10;91.40;;;;;;5001069;28;20030;-73
2022/09/25 12:30:10;;;;;;;10.00;7.90;;;20.20;91.20;;;;;;5003839;28;20034;-74
2022/09/25 12:33:03;;;;;;;7.70;6.80;;;20.30;90.90;;;;;;5011224;28;20075;-74
2022/09/25 12:35:39;;;;;;;8.80;6.80;;;20.30;90.60;;;;;;5008874;28;20033;-75
2022/09/25 12:38:10;;;;;;;9.65;7.18;;;20.20;90.00;;;;;;4988129;28;20026;-74
2022/09/25 12:40:42;;;;;;;9.38;6.93;;;20.10;89.60;;;;;;5004241;28;20381;-73
2022/09/25 12:43:15;;;;;;;8.48;6.72;;;20.20;89.60;;;;;;4990950;28;20121;-74
2022/09/25 12:45:44;;;;;;;6.63;5.43;;;20.20;89.50;;;;;;5008765;28;20021;-73
2022/09/25 12:48:29;;;;;;;9.32;6.75;;;20.30;89.60;;;;;;5001515;28;20038;-73
2022/09/25 12:50:55;;;;;;;;;;;20.30;89.10;;;;;;5008636;28;20660;-73
2022/09/25 12:53:44;;;;;;;6.93;5.65;;;20.30;90.10;;;;;;5002755;28;19924;-72
2022/09/25 12:56:32;;;;;;;7.45;6.28;;;20.30;89.10;;;;;;5001378;28;20042;-72
2022/09/25 12:59:24;;;;;;;7.63;6.28;;;20.20;89.40;;;;;;4999500;28;20030;-73
2022/09/25 13:01:56;;;;;;;7.22;5.68;;;20.20;88.90;;;;;;5003627;28;20121;-73
2022/09/25 13:04:38;;;;;;;6.82;5.40;;;20.20;89.50;;;;;;4982928;28;20118;-73
2022/09/25 13:07:23;;;;;;;6.72;5.38;;;20.20;88.90;;;;;;5006174;28;20050;-74
2022/09/25 13:09:49;;;;;;;6.65;5.22;;;20.20;88.30;;;;;;5006461;28;20034;-73
2022/09/25 13:12:32;;;;;;;6.82;5.53;;;20.20;87.80;;;;;;5013868;28;20049;-73
2022/09/25 13:15:08;;;;;;;7.03;5.80;;;20.20;86.80;;;;;;5013843;28;20104;-73
2022/09/25 13:17:35;;;;;;;6.32;5.00;;;20.20;86.60;;;;;;5013350;28;20556;-73
2022/09/25 13:20:26;;;;;;;8.07;5.40;;;20.20;86.20;;;;;;5012370;28;20120;-73
2022/09/25 13:23:23;;;;;;;5.88;4.70;;;20.20;86.00;;;;;;4998954;28;20074;-75
2022/09/25 13:25:59;;;;;;;7.45;5.75;;;20.20;86.60;;;;;;4995711;28;20084;-71
2022/09/25 13:28:33;;;;;;;6.82;5.32;;;20.30;87.10;;;;;;5013438;28;20038;-70
2022/09/25 13:31:11;;;;;;;10.90;5.40;;;20.30;86.90;;;;;;5013218;28;20057;-71
2022/09/25 13:33:59;;;;;;;7.53;5.35;;;20.40;87.10;;;;;;5001312;28;20026;-70